Time;durP1;ratioP1;P1;durP2;ratioP2;P2;SDS_P1;SDS_P2;PMS_P1;PMS_P2;Temp;Humidity;BMP_temperature;BMP_pressure;BME280_temperature;BME280_humidity;BME280_pressure;Samples;Min_cycle;Max_cycle;Signal;HPM_P1;HPM_P2
2021/10/14 02:26:43;;;;;;;2.10;0.90;;;23.30;66.00;;;;;;4073981;29;20054;-69
2021/10/14 02:28:45;;;;;;;2.75;1.15;;;23.30;65.90;;;;;;4073356;29;20154;-71
2021/10/14 02:30:48;;;;;;;2.97;1.25;;;23.40;66.60;;;;;;4057346;29;20083;-70
2021/10/14 02:32:54;;;;;;;2.95;1.20;;;23.40;65.90;;;;;;4075067;29;20131;-68
2021/10/14 02:34:57;;;;;;;3.78;1.10;;;23.40;65.90;;;;;;4076327;29;20043;-71
2021/10/14 02:36:59;;;;;;;2.72;1.25;;;;;;;;;;4073022;29;20125;-68
2021/10/14 02:39:02;;;;;;;2.25;1.08;;;;;;;;;;4074479;29;20043;-69
2021/10/14 02:41:04;;;;;;;3.00;1.27;;;23.50;66.00;;;;;;4075463;29;20501;-69
2021/10/14 02:43:12;;;;;;;2.80;1.38;;;23.60;66.00;;;;;;4073241;29;20123;-70
2021/10/14 02:45:18;;;;;;;2.83;1.40;;;23.60;66.40;;;;;;4075255;29;20042;-71
2021/10/14 02:47:22;;;;;;;2.95;1.35;;;23.60;65.80;;;;;;4055414;29;20712;-71
2021/10/14 02:49:24;;;;;;;2.60;1.25;;;23.70;65.90;;;;;;4057780;29;20048;-70
2021/10/14 02:51:27;;;;;;;4.13;1.42;;;23.70;65.90;;;;;;4075723;29;20094;-74
2021/10/14 02:53:30;;;;;;;3.13;1.13;;;23.70;65.90;;;;;;4075227;29;20102;-68
2021/10/14 02:55:35;;;;;;;3.20;1.15;;;23.70;65.80;;;;;;4074565;29;20044;-69
2021/10/14 02:57:38;;;;;;;3.50;1.30;;;23.80;65.80;;;;;;4073793;29;20118;-70
2021/10/14 02:59:40;;;;;;;2.33;1.02;;;23.80;65.70;;;;;;4074476;29;20059;-71
2021/10/14 03:01:43;;;;;;;2.40;1.05;;;23.80;65.70;;;;;;4075942;29;20118;-71
2021/10/14 03:03:46;;;;;;;2.25;1.25;;;23.80;65.60;;;;;;4069654;29;20046;-74
2021/10/14 03:05:48;;;;;;;2.47;1.23;;;23.90;65.70;;;;;;4075258;29;20034;-72
2021/10/14 03:07:51;;;;;;;3.80;1.67;;;23.90;65.60;;;;;;4072961;29;20044;-73
2021/10/14 03:09:53;;;;;;;3.05;1.50;;;23.90;65.30;;;;;;4052625;29;20055;-70
2021/10/14 03:11:56;;;;;;;3.63;1.38;;;23.90;65.50;;;;;;4073474;29;20034;-71
2021/10/14 03:13:58;;;;;;;4.18;1.38;;;24.00;65.50;;;;;;4073113;29;20036;-70
2021/10/14 03:16:04;;;;;;;4.43;1.30;;;24.00;65.20;;;;;;4073745;29;20078;-70
2021/10/14 03:18:06;;;;;;;2.88;1.23;;;24.00;65.50;;;;;;4072624;29;20051;-68
2021/10/14 03:20:10;;;;;;;2.25;1.20;;;24.10;65.50;;;;;;4071644;29;20134;-71
2021/10/14 03:22:12;;;;;;;5.00;1.60;;;24.10;65.50;;;;;;4072495;29;20052;-69
2021/10/14 03:24:18;;;;;;;3.42;1.40;;;24.10;65.50;;;;;;4058011;29;20046;-70
2021/10/14 03:26:23;;;;;;;3.05;1.20;;;24.20;65.50;;;;;;4058712;29;20059;-68
2021/10/14 03:28:26;;;;;;;3.78;1.42;;;24.20;65.50;;;;;;4054874;29;20052;-70
2021/10/14 03:30:28;;;;;;;2.90;1.50;;;24.30;65.50;;;;;;4057570;29;20082;-70
2021/10/14 03:32:31;;;;;;;4.63;1.75;;;24.30;65.50;;;;;;4060233;29;20047;-68
2021/10/14 03:34:35;;;;;;;4.93;1.75;;;24.30;65.40;;;;;;4055387;29;20218;-68
2021/10/14 03:36:38;;;;;;;5.13;1.77;;;24.30;65.40;;;;;;4055424;29;20047;-70
2021/10/14 03:38:43;;;;;;;5.28;1.65;;;24.30;65.40;;;;;;4059556;29;20361;-71
2021/10/14 03:40:46;;;;;;;3.83;1.65;;;24.40;65.40;;;;;;4058469;29;20395;-69
2021/10/14 03:42:49;;;;;;;3.25;1.20;;;24.40;65.40;;;;;;4060635;29;20099;-70
2021/10/14 03:44:52;;;;;;;3.22;1.55;;;24.40;65.40;;;;;;4043864;29;20434;-70
2021/10/14 03:46:54;;;;;;;3.75;1.52;;;24.40;65.40;;;;;;4062149;29;20154;-72
2021/10/14 03:48:57;;;;;;;3.45;1.40;;;24.50;65.40;;;;;;4058436;29;20048;-69
2021/10/14 03:50:59;;;;;;;3.47;1.45;;;24.50;65.50;;;;;;4056220;29;20827;-72
2021/10/14 03:53:02;;;;;;;3.60;1.58;;;24.50;65.40;;;;;;4057294;29;20516;-73
2021/10/14 03:55:06;;;;;;;4.60;2.08;;;24.60;65.40;;;;;;4055928;29;20055;-69
2021/10/14 03:57:09;;;;;;;4.53;1.63;;;24.60;65.10;;;;;;4058218;29;20383;-69
2021/10/14 03:59:11;;;;;;;7.80;1.92;;;24.60;65.00;;;;;;4057210;29;20187;-70
2021/10/14 04:01:16;;;;;;;6.75;2.53;;;24.60;65.00;;;;;;4054399;29;20051;-70
2021/10/14 04:03:18;;;;;;;5.47;1.90;;;24.60;65.00;;;;;;4056030;29;20501;-70
2021/10/14 04:05:26;;;;;;;3.95;1.90;;;24.60;64.90;;;;;;4056777;29;20036;-72
2021/10/14 04:07:29;;;;;;;4.40;2.10;;;24.60;64.90;;;;;;4058861;29;20096;-68
2021/10/14 04:09:32;;;;;;;5.32;2.00;;;24.60;64.80;;;;;;4061346;29;20558;-69
2021/10/14 04:11:34;;;;;;;5.15;2.22;;;24.60;64.50;;;;;;4059786;29;20508;-68
2021/10/14 04:13:37;;;;;;;3.92;2.05;;;24.60;64.50;;;;;;4054670;29;20051;-69
2021/10/14 04:15:40;;;;;;;5.93;2.40;;;24.60;64.50;;;;;;4058415;29;20815;-69
2021/10/14 04:17:45;;;;;;;5.07;2.15;;;24.60;64.40;;;;;;4052953;29;20426;-68
2021/10/14 04:19:47;;;;;;;6.35;2.10;;;24.60;64.30;;;;;;4056148;29;20079;-70
2021/10/14 04:21:50;;;;;;;5.78;2.40;;;24.50;64.10;;;;;;4055285;29;20585;-74
2021/10/14 04:23:55;;;;;;;4.88;2.28;;;24.60;64.20;;;;;;4053429;29;20626;-80
2021/10/14 04:25:58;;;;;;;5.00;2.03;;;24.60;64.20;;;;;;4044977;29;20045;-81
2021/10/14 04:28:01;;;;;;;5.22;2.22;;;24.50;64.10;;;;;;4041786;29;20164;-74
2021/10/14 04:30:07;;;;;;;5.32;2.38;;;24.50;64.20;;;;;;4044788;29;20471;-75
2021/10/14 04:32:11;;;;;;;9.57;2.22;;;24.50;64.10;;;;;;4041704;29;20367;-72
2021/10/14 04:34:13;;;;;;;8.20;2.20;;;24.50;64.10;;;;;;4044723;29;20522;-75
2021/10/14 04:36:16;;;;;;;7.25;2.65;;;24.50;64.20;;;;;;4044007;29;20032;-77
2021/10/14 04:38:19;;;;;;;6.78;2.20;;;24.50;64.30;;;;;;4034604;29;20143;-75
2021/10/14 04:40:21;;;;;;;10.07;3.13;;;24.50;64.80;;;;;;4040131;29;20507;-77
2021/10/14 04:42:24;;;;;;;9.88;2.75;;;24.50;65.10;;;;;;4042685;29;20036;-75
2021/10/14 04:44:28;;;;;;;7.53;2.50;;;24.60;65.00;;;;;;4039227;29;20487;-77
2021/10/14 04:46:31;;;;;;;8.88;2.45;;;24.50;64.90;;;;;;4030389;29;20120;-72
2021/10/14 04:48:37;;;;;;;7.88;2.55;;;24.50;64.90;;;;;;4027217;29;20084;-75
2021/10/14 04:50:39;;;;;;;8.50;2.88;;;24.60;65.10;;;;;;4046737;29;20047;-77
2021/10/14 04:52:44;;;;;;;11.25;2.30;;;24.50;65.20;;;;;;4031211;29;20452;-73
2021/10/14 04:54:47;;;;;;;9.15;2.50;;;24.50;65.20;;;;;;4044567;29;20086;-74
2021/10/14 04:56:49;;;;;;;9.55;2.70;;;24.50;65.20;;;;;;4046909;29;20136;-75
2021/10/14 04:58:52;;;;;;;9.10;2.20;;;24.50;65.10;;;;;;4047027;29;20050;-81
2021/10/14 05:00:54;;;;;;;8.50;2.67;;;24.50;65.00;;;;;;4046816;29;20041;-75
2021/10/14 05:03:00;;;;;;;6.30;2.55;;;24.50;65.10;;;;;;4030012;29;20112;-78
2021/10/14 05:05:03;;;;;;;6.63;2.38;;;24.50;64.80;;;;;;4044489;29;20101;-76
2021/10/14 05:07:08;;;;;;;9.93;2.83;;;24.50;65.10;;;;;;4046472;29;20077;-79
2021/10/14 05:09:11;;;;;;;5.72;2.60;;;24.50;64.80;;;;;;4044541;29;20379;-79
2021/10/14 05:11:14;;;;;;;7.50;2.75;;;24.50;64.80;;;;;;4036355;29;20047;-74
2021/10/14 05:13:16;;;;;;;;;;;24.40;64.80;;;;;;4020969;29;20037;-79
2021/10/14 05:15:19;;;;;;;8.07;2.35;;;24.40;65.00;;;;;;4039440;29;19915;-77
2021/10/14 05:17:21;;;;;;;5.30;2.10;;;24.40;65.10;;;;;;4044407;29;20041;-77
2021/10/14 05:19:24;;;;;;;5.65;2.33;;;24.40;65.20;;;;;;4044793;29;20044;-76
2021/10/14 05:21:27;;;;;;;5.53;2.50;;;24.40;65.30;;;;;;4047150;29;20040;-77
2021/10/14 05:23:29;;;;;;;5.40;2.00;;;24.50;65.60;;;;;;4045977;29;20179;-74
2021/10/14 05:25:35;;;;;;;5.78;2.60;;;24.40;65.70;;;;;;4053328;29;20048;-77
2021/10/14 05:27:38;;;;;;;7.07;2.17;;;24.50;65.70;;;;;;4062056;29;20131;-82
2021/10/14 05:29:40;;;;;;;6.15;2.40;;;24.50;65.80;;;;;;4042442;29;20092;-74
2021/10/14 05:31:43;;;;;;;8.10;2.33;;;24.50;65.90;;;;;;4055382;29;20040;-74
2021/10/14 05:33:45;;;;;;;6.45;2.33;;;24.50;65.90;;;;;;4057168;29;20036;-75
2021/10/14 05:35:51;;;;;;;6.15;2.33;;;24.50;66.00;;;;;;4051259;29;20844;-77
2021/10/14 05:37:57;;;;;;;3.97;2.00;;;24.50;66.00;;;;;;4053214;29;20124;-74
2021/10/14 05:40:03;;;;;;;5.72;2.58;;;24.60;66.10;;;;;;4050670;29;20111;-75
2021/10/14 05:42:06;;;;;;;7.07;2.40;;;24.60;66.20;;;;;;4054165;29;20468;-75
2021/10/14 05:44:08;;;;;;;5.70;2.17;;;24.60;66.20;;;;;;4055068;29;20040;-75
2021/10/14 05:46:14;;;;;;;5.85;2.35;;;24.60;66.30;;;;;;4039678;29;20041;-77
2021/10/14 05:48:16;;;;;;;5.15;2.10;;;24.60;66.30;;;;;;4040719;29;20122;-78
2021/10/14 05:50:19;;;;;;;4.60;1.88;;;24.60;67.00;;;;;;4055771;29;20461;-74
2021/10/14 05:52:21;;;;;;;5.75;2.35;;;24.60;66.40;;;;;;4058903;29;20143;-76
2021/10/14 05:54:24;;;;;;;5.57;2.47;;;24.70;66.40;;;;;;4059651;29;20047;-75
2021/10/14 05:56:27;;;;;;;5.78;2.28;;;24.70;66.30;;;;;;4055603;29;20545;-73
2021/10/14 05:58:29;;;;;;;6.15;2.08;;;24.80;66.20;;;;;;4059566;29;20573;-75
2021/10/14 06:00:32;;;;;;;4.63;2.47;;;24.80;66.20;;;;;;4055016;29;20146;-79
2021/10/14 06:02:34;;;;;;;6.47;3.10;;;24.80;66.10;;;;;;4056967;29;20170;-77
2021/10/14 06:04:37;;;;;;;6.47;2.60;;;24.80;66.00;;;;;;4061748;29;20047;-76
2021/10/14 06:06:39;;;;;;;6.32;2.70;;;24.90;66.10;;;;;;4057399;29;20040;-73
2021/10/14 06:08:42;;;;;;;4.50;2.42;;;24.90;66.00;;;;;;4059481;29;20079;-73
2021/10/14 06:10:44;;;;;;;4.40;2.50;;;24.90;65.70;;;;;;4062543;29;20032;-72
2021/10/14 06:12:47;;;;;;;6.57;3.17;;;25.00;65.50;;;;;;4051428;29;20036;-75
2021/10/14 06:14:49;;;;;;;5.35;2.63;;;24.90;65.40;;;;;;4061288;29;20047;-72
2021/10/14 06:16:52;;;;;;;5.53;2.45;;;25.00;65.30;;;;;;4062379;29;20032;-72
2021/10/14 06:18:54;;;;;;;7.35;2.75;;;25.00;65.10;;;;;;4059072;29;20028;-70
2021/10/14 06:20:57;;;;;;;8.20;2.80;;;25.10;65.00;;;;;;4061547;29;20386;-73
2021/10/14 06:23:02;;;;;;;16.92;2.97;;;25.10;65.00;;;;;;4059945;29;20052;-72
2021/10/14 06:25:05;;;;;;;5.22;3.00;;;25.10;64.90;;;;;;4058125;29;20071;-71
2021/10/14 06:27:08;;;;;;;5.00;2.58;;;25.20;65.00;;;;;;4061378;29;20035;-71
2021/10/14 06:29:10;;;;;;;7.15;3.25;;;25.20;64.90;;;;;;4053798;29;20797;-73
2021/10/14 06:31:13;;;;;;;7.65;3.00;;;25.30;65.00;;;;;;4052469;29;20095;-70
2021/10/14 06:33:15;;;;;;;7.75;3.20;;;25.20;65.00;;;;;;4048418;29;20615;-73
2021/10/14 06:35:18;;;;;;;8.43;3.67;;;25.30;65.10;;;;;;4052444;29;20136;-74
2021/10/14 06:37:20;;;;;;;8.80;4.82;;;25.20;65.10;;;;;;4062057;29;20080;-72
2021/10/14 06:39:23;;;;;;;12.20;6.65;;;25.30;65.00;;;;;;4055192;29;20032;-74
2021/10/14 06:41:26;;;;;;;9.55;5.43;;;25.20;65.20;;;;;;4058163;29;20039;-75
2021/10/14 06:43:29;;;;;;;12.13;6.20;;;25.20;65.10;;;;;;4056237;29;20039;-76
2021/10/14 06:45:31;;;;;;;13.80;6.45;;;25.20;65.00;;;;;;4059580;29;20050;-78
2021/10/14 06:47:35;;;;;;;12.85;6.40;;;25.20;65.00;;;;;;4050922;29;20052;-74
2021/10/14 06:49:37;;;;;;;11.32;6.45;;;25.10;64.90;;;;;;4051807;29;20071;-79
2021/10/14 06:51:40;;;;;;;15.02;7.35;;;25.10;64.90;;;;;;4054585;29;20103;-74
2021/10/14 06:53:42;;;;;;;10.63;6.00;;;25.10;65.00;;;;;;4051608;29;20072;-77
2021/10/14 06:55:45;;;;;;;7.72;5.22;;;25.10;65.00;;;;;;4050290;29;20037;-75
2021/10/14 06:57:48;;;;;;;11.02;5.65;;;25.00;65.10;;;;;;4050797;29;20039;-77
2021/10/14 06:59:50;;;;;;;11.30;6.15;;;25.00;65.00;;;;;;4052194;29;20044;-75
2021/10/14 07:01:53;;;;;;;8.45;5.00;;;25.00;65.30;;;;;;4051245;29;20044;-75
2021/10/14 07:03:55;;;;;;;9.38;5.30;;;25.00;65.10;;;;;;4050325;29;20123;-73
2021/10/14 07:05:58;;;;;;;10.25;5.88;;;24.90;65.00;;;;;;4052333;29;20047;-80
2021/10/14 07:08:00;;;;;;;8.25;4.35;;;24.90;65.00;;;;;;4053496;29;20052;-75
2021/10/14 07:10:03;;;;;;;9.95;5.15;;;24.90;65.20;;;;;;4050897;29;20055;-73
2021/10/14 07:12:10;;;;;;;9.55;4.45;;;24.90;65.10;;;;;;4056029;29;20055;-65
2021/10/14 07:14:13;;;;;;;10.10;4.30;;;24.80;65.10;;;;;;4054874;29;20040;-65
2021/10/14 07:16:15;;;;;;;7.80;4.47;;;24.80;65.20;;;;;;4052928;29;20096;-69
2021/10/14 07:18:18;;;;;;;9.00;3.78;;;24.80;65.30;;;;;;4056072;29;20048;-67
2021/10/14 07:20:21;;;;;;;8.38;4.05;;;24.80;65.20;;;;;;4054955;29;20091;-69
2021/10/14 07:22:24;;;;;;;10.27;3.95;;;24.80;65.20;;;;;;4056740;29;20048;-67
2021/10/14 07:24:27;;;;;;;6.80;3.28;;;24.80;65.30;;;;;;4041592;29;20036;-66
2021/10/14 07:26:30;;;;;;;9.10;3.97;;;24.70;65.20;;;;;;4056794;29;20056;-65
2021/10/14 07:28:32;;;;;;;11.18;4.18;;;24.70;65.30;;;;;;4058698;29;20052;-76
2021/10/14 07:30:36;;;;;;;11.70;4.43;;;24.70;65.30;;;;;;4058313;29;20042;-75
2021/10/14 07:32:39;;;;;;;8.27;3.78;;;24.70;65.50;;;;;;4044577;29;20055;-76
2021/10/14 07:34:42;;;;;;;8.13;3.60;;;24.70;65.40;;;;;;4058456;29;20036;-77
2021/10/14 07:36:45;;;;;;;9.50;3.78;;;24.60;65.40;;;;;;4059089;29;20084;-76
2021/10/14 07:38:47;;;;;;;6.57;3.45;;;24.60;65.40;;;;;;4054017;29;20067;-81
2021/10/14 07:40:50;;;;;;;8.55;4.30;;;24.60;65.60;;;;;;4055907;29;20067;-77
2021/10/14 07:42:53;;;;;;;8.52;3.45;;;24.60;65.50;;;;;;4060328;29;20413;-80
2021/10/14 07:44:55;;;;;;;8.65;3.20;;;24.60;65.50;;;;;;4060041;29;20044;-76
2021/10/14 07:47:02;;;;;;;9.77;3.58;;;24.50;65.50;;;;;;4057288;29;20089;-79
2021/10/14 07:49:05;;;;;;;9.48;3.53;;;24.50;65.50;;;;;;4055566;29;20083;-76
2021/10/14 07:51:09;;;;;;;10.05;3.10;;;24.50;65.50;;;;;;4054978;29;20089;-83
2021/10/14 07:53:16;;;;;;;9.80;3.95;;;24.50;65.50;;;;;;4055573;29;20170;-81
2021/10/14 07:55:19;;;;;;;6.75;3.45;;;24.50;65.60;;;;;;4057156;29;20044;-75
2021/10/14 07:57:22;;;;;;;9.30;3.50;;;24.50;65.60;;;;;;4057044;29;20059;-75
2021/10/14 07:59:25;;;;;;;8.27;3.13;;;24.50;65.60;;;;;;4055740;29;20059;-79
2021/10/14 08:01:31;;;;;;;9.82;3.03;;;24.50;65.70;;;;;;4058475;29;20036;-79
2021/10/14 08:03:38;;;;;;;7.53;3.00;;;24.40;65.60;;;;;;4056222;29;20037;-78
2021/10/14 08:05:51;;;;;;;12.25;3.50;;;24.40;65.70;;;;;;4050913;29;20092;-75
2021/10/14 08:07:54;;;;;;;6.88;3.28;;;24.40;65.80;;;;;;4037615;29;20102;-79
2021/10/14 08:10:00;;;;;;;;;;;24.40;66.00;;;;;;4057682;29;20076;-76
2021/10/14 08:12:03;;;;;;;8.85;2.90;;;24.40;65.90;;;;;;4056364;29;19919;-80
2021/10/14 08:14:07;;;;;;;10.68;3.30;;;24.40;66.20;;;;;;4061561;29;20080;-78
2021/10/14 08:16:14;;;;;;;9.18;2.78;;;24.30;66.10;;;;;;4059065;29;20744;-76
2021/10/14 08:18:17;;;;;;;12.15;3.60;;;24.30;66.00;;;;;;4056847;29;20516;-81
2021/10/14 08:20:20;;;;;;;12.10;4.15;;;24.30;66.20;;;;;;4059602;29;20043;-76
2021/10/14 08:22:54;;;;;;;11.27;3.60;;;24.30;66.40;;;;;;4058449;29;20471;-77
2021/10/14 08:25:14;;;;;;;11.23;3.63;;;24.30;66.40;;;;;;4046373;29;20154;-73
2021/10/14 08:27:16;;;;;;;13.05;3.83;;;24.20;66.50;;;;;;4059023;29;20644;-72
2021/10/14 08:29:19;;;;;;;13.88;3.83;;;24.30;67.20;;;;;;4056195;29;20066;-72
2021/10/14 08:31:24;;;;;;;10.30;3.92;;;24.20;67.10;;;;;;4060404;29;20064;-75
2021/10/14 08:33:27;;;;;;;11.63;3.95;;;24.20;67.40;;;;;;4056573;29;20043;-74
2021/10/14 08:35:35;;;;;;;7.65;3.35;;;24.30;67.60;;;;;;4057826;29;20502;-78
2021/10/14 08:37:39;;;;;;;8.50;3.25;;;24.30;67.60;;;;;;4061200;29;20036;-78
2021/10/14 08:39:41;;;;;;;10.82;3.83;;;24.30;67.60;;;;;;4067283;29;20039;-71
2021/10/14 08:41:47;;;;;;;10.93;3.03;;;24.30;67.60;;;;;;4068603;29;20159;-72
2021/10/14 08:43:52;;;;;;;11.45;3.25;;;24.40;67.50;;;;;;4069039;29;20032;-73
2021/10/14 08:46:21;;;;;;;10.02;3.22;;;24.40;67.60;;;;;;4053246;29;20283;-73
2021/10/14 08:48:36;;;;;;;9.65;3.15;;;24.40;67.60;;;;;;4071556;29;20044;-74
2021/10/14 08:50:43;;;;;;;7.88;3.60;;;24.40;67.60;;;;;;4058563;29;20096;-75
2021/10/14 08:52:46;;;;;;;8.63;2.83;;;24.40;67.60;;;;;;4073409;29;20104;-76
2021/10/14 08:54:52;;;;;;;12.93;3.28;;;24.40;67.50;;;;;;4073408;29;20048;-77
2021/10/14 08:56:55;;;;;;;9.80;3.65;;;24.50;67.60;;;;;;4072353;29;20036;-73
2021/10/14 08:58:57;;;;;;;11.85;3.53;;;24.50;67.60;;;;;;4077736;29;20058;-74
2021/10/14 09:01:09;;;;;;;16.15;3.25;;;24.50;67.60;;;;;;4070359;29;20047;-71
2021/10/14 09:03:30;;;;;;;9.85;3.25;;;24.50;67.60;;;;;;4070819;29;20131;-74
2021/10/14 09:05:46;;;;;;;8.13;3.10;;;24.50;67.50;;;;;;4074494;29;20186;-75
2021/10/14 09:07:52;;;;;;;8.07;2.90;;;24.50;67.40;;;;;;4055272;29;20043;-73
2021/10/14 09:10:00;;;;;;;7.68;2.95;;;24.50;67.40;;;;;;4068758;29;20048;-74
2021/10/14 09:12:08;;;;;;;10.60;3.30;;;24.60;67.50;;;;;;4074596;29;20046;-76
2021/10/14 09:14:11;;;;;;;11.18;3.17;;;24.60;67.50;;;;;;4070098;29;20574;-74
2021/10/14 09:16:37;;;;;;;6.70;3.25;;;24.60;67.50;;;;;;4068566;29;20091;-73
2021/10/14 09:18:40;;;;;;;7.57;3.10;;;24.60;67.40;;;;;;4063597;29;20047;-74
2021/10/14 09:20:44;;;;;;;7.85;3.30;;;24.60;67.40;;;;;;4063658;29;20044;-66
2021/10/14 09:22:58;;;;;;;8.43;2.90;;;24.60;68.00;;;;;;4056473;29;20155;-66
2021/10/14 09:25:04;;;;;;;8.77;3.13;;;24.60;67.40;;;;;;4056886;29;20172;-66
2021/10/14 09:27:13;;;;;;;6.47;2.65;;;24.60;67.30;;;;;;4056271;29;20136;-67
2021/10/14 09:29:16;;;;;;;5.85;2.78;;;24.70;67.30;;;;;;4057830;29;20502;-66
2021/10/14 09:31:18;;;;;;;7.20;3.30;;;24.70;67.30;;;;;;4058067;29;20068;-66
2021/10/14 09:33:47;;;;;;;6.75;2.65;;;24.70;67.30;;;;;;4054751;29;20051;-65
2021/10/14 09:35:53;;;;;;;7.13;2.80;;;24.70;67.30;;;;;;4053053;29;20040;-63
2021/10/14 09:37:55;;;;;;;;;;;24.70;67.20;;;;;;4056602;29;20051;-67
2021/10/14 09:40:11;;;;;;;6.75;2.78;;;24.70;67.10;;;;;;4057856;29;19922;-65
2021/10/14 09:42:44;;;;;;;7.28;3.17;;;24.70;67.10;;;;;;4053514;29;20040;-64
2021/10/14 09:44:51;;;;;;;10.02;3.40;;;24.70;67.10;;;;;;4054518;29;20038;-64
2021/10/14 09:46:58;;;;;;;7.32;2.60;;;24.80;67.10;;;;;;4054806;29;20040;-64
2021/10/14 09:49:01;;;;;;;6.88;2.85;;;24.80;67.10;;;;;;4052867;29;20156;-63
2021/10/14 09:51:18;;;;;;;;;;;;;;;;;;;;;
2021/10/14 09:53:27;;;;;;;7.20;2.83;;;24.80;67.00;;;;;;4053048;29;20471;-64
2021/10/14 09:55:29;;;;;;;6.03;2.90;;;24.80;67.00;;;;;;4054857;29;20068;-65
2021/10/14 09:57:32;;;;;;;6.93;2.72;;;24.80;67.00;;;;;;4055167;29;20183;-74
2021/10/14 09:59:35;;;;;;;5.65;2.38;;;24.80;67.00;;;;;;4061877;29;20044;-74
2021/10/14 10:01:42;;;;;;;7.28;2.53;;;24.80;67.00;;;;;;4060246;29;20091;-73
2021/10/14 10:03:45;;;;;;;7.03;3.10;;;24.80;66.90;;;;;;4061051;29;20564;-77
2021/10/14 10:05:53;;;;;;;8.98;3.10;;;24.80;66.90;;;;;;4062000;29;20156;-72
2021/10/14 10:07:57;;;;;;;7.05;2.85;;;24.80;66.90;;;;;;4060865;29;20036;-72
2021/10/14 10:10:00;;;;;;;8.02;2.83;;;24.80;66.90;;;;;;4056949;29;20052;-73
2021/10/14 10:12:08;;;;;;;7.28;3.20;;;24.90;67.00;;;;;;4060408;29;20414;-72
2021/10/14 10:14:12;;;;;;;6.80;2.88;;;24.90;66.90;;;;;;4061101;29;20059;-72
2021/10/14 10:16:24;;;;;;;6.28;2.78;;;24.90;66.80;;;;;;4063628;29;20396;-72
2021/10/14 10:18:30;;;;;;;6.25;2.90;;;24.80;66.80;;;;;;4063422;29;20040;-72
2021/10/14 10:20:43;;;;;;;7.88;2.92;;;24.90;66.90;;;;;;4059498;29;20036;-74
2021/10/14 10:22:50;;;;;;;7.72;2.85;;;24.90;66.90;;;;;;4058035;29;20048;-74
2021/10/14 10:24:53;;;;;;;7.55;2.72;;;24.90;66.80;;;;;;4061997;29;20047;-72
2021/10/14 10:26:59;;;;;;;7.25;3.05;;;24.90;66.70;;;;;;4063044;29;20121;-74
2021/10/14 10:29:14;;;;;;;10.93;2.90;;;24.90;66.70;;;;;;4061259;29;20047;-74
2021/10/14 10:31:17;;;;;;;8.68;2.85;;;24.90;66.70;;;;;;4056177;29;20100;-73
2021/10/14 10:33:51;;;;;;;5.75;3.00;;;24.90;66.70;;;;;;4063362;29;20040;-72
2021/10/14 10:35:54;;;;;;;6.20;3.03;;;24.90;66.70;;;;;;4061446;29;20036;-72
2021/10/14 10:38:14;;;;;;;6.60;3.15;;;24.90;66.70;;;;;;4056044;29;20359;-71
2021/10/14 10:40:32;;;;;;;4.90;2.78;;;24.90;66.70;;;;;;4058696;29;20040;-72
2021/10/14 10:42:42;;;;;;;6.97;3.22;;;24.90;66.60;;;;;;4052176;29;20029;-75
2021/10/14 10:44:46;;;;;;;7.55;2.88;;;24.90;66.60;;;;;;4039779;29;20037;-72
2021/10/14 10:46:49;;;;;;;5.32;2.50;;;24.90;66.50;;;;;;4051069;29;20033;-71
2021/10/14 10:48:52;;;;;;;8.15;3.05;;;24.90;66.50;;;;;;4057786;29;20072;-71
2021/10/14 10:50:56;;;;;;;8.80;3.60;;;24.90;66.50;;;;;;4056185;29;20124;-72
2021/10/14 10:53:09;;;;;;;7.00;3.00;;;24.90;66.50;;;;;;4051607;29;20534;-65
2021/10/14 10:55:24;;;;;;;6.30;2.70;;;25.00;66.60;;;;;;4054400;29;20032;-64
2021/10/14 10:57:49;;;;;;;5.75;2.60;;;25.00;66.60;;;;;;4052320;29;20109;-65
2021/10/14 10:59:54;;;;;;;9.15;3.10;;;25.00;66.50;;;;;;4055029;29;20506;-65
2021/10/14 11:02:02;;;;;;;6.95;2.70;;;25.00;66.50;;;;;;4050845;29;20543;-64
2021/10/14 11:04:07;;;;;;;7.90;3.60;;;25.00;66.50;;;;;;4054422;29;20123;-64
2021/10/14 11:06:11;;;;;;;5.50;2.97;;;25.00;66.40;;;;;;4055909;29;20032;-65
2021/10/14 11:08:18;;;;;;;7.72;3.17;;;25.00;66.50;;;;;;4059430;29;20112;-65
2021/10/14 11:10:30;;;;;;;7.88;3.03;;;25.00;66.40;;;;;;4059898;29;20092;-65
2021/10/14 11:12:33;;;;;;;9.05;3.10;;;25.00;66.40;;;;;;4058640;29;20082;-65
2021/10/14 11:14:41;;;;;;;8.63;3.42;;;25.00;66.40;;;;;;4059760;29;20035;-66
2021/10/14 11:16:44;;;;;;;6.00;2.97;;;25.00;66.30;;;;;;4059338;29;20060;-66
2021/10/14 11:18:48;;;;;;;8.00;3.50;;;25.00;66.30;;;;;;4055439;29;20047;-65
2021/10/14 11:20:58;;;;;;;6.85;3.22;;;25.00;66.20;;;;;;4057435;29;20122;-66
2021/10/14 11:23:08;;;;;;;5.68;2.70;;;25.00;66.30;;;;;;4051631;29;20325;-67
2021/10/14 11:25:17;;;;;;;9.63;2.90;;;25.00;66.90;;;;;;4057071;29;20067;-65
2021/10/14 11:27:23;;;;;;;6.57;2.72;;;25.00;66.20;;;;;;4051296;29;20040;-65
2021/10/14 11:29:29;;;;;;;10.32;2.95;;;25.00;66.20;;;;;;4035254;29;20122;-65
2021/10/14 11:31:37;;;;;;;4.95;2.25;;;25.00;66.20;;;;;;4058851;29;20024;-65
2021/10/14 11:33:39;;;;;;;8.68;2.90;;;25.00;66.20;;;;;;4059839;29;20040;-63
2021/10/14 11:35:42;;;;;;;9.90;3.38;;;25.00;66.20;;;;;;4041544;29;20192;-65
2021/10/14 11:37:45;;;;;;;8.45;3.45;;;25.00;66.10;;;;;;4060670;29;20099;-63
2021/10/14 11:39:49;;;;;;;6.22;2.50;;;25.00;66.10;;;;;;4058291;29;20047;-63
2021/10/14 11:42:11;;;;;;;5.28;2.70;;;25.00;66.10;;;;;;4043359;29;20123;-64
2021/10/14 11:44:15;;;;;;;7.47;3.10;;;25.00;66.10;;;;;;4057652;29;20498;-65
2021/10/14 11:46:24;;;;;;;8.55;3.30;;;25.00;66.10;;;;;;4059160;29;20127;-65
2021/10/14 11:48:35;;;;;;;8.57;3.20;;;25.00;66.10;;;;;;4058195;29;20042;-65
2021/10/14 11:50:41;;;;;;;5.40;2.88;;;25.00;66.00;;;;;;4059426;29;21163;-65
2021/10/14 11:52:43;;;;;;;7.15;3.10;;;25.00;66.00;;;;;;4059011;29;20040;-65
2021/10/14 11:54:46;;;;;;;5.78;2.85;;;25.00;66.00;;;;;;4043159;29;20200;-64
2021/10/14 11:56:53;;;;;;;7.00;3.10;;;25.10;66.00;;;;;;4059086;29;20414;-64
2021/10/14 11:59:05;;;;;;;8.43;2.92;;;25.10;66.00;;;;;;4057159;29;20115;-65
2021/10/14 12:01:15;;;;;;;7.13;2.70;;;25.10;65.90;;;;;;4059049;29;20344;-64
2021/10/14 12:03:19;;;;;;;7.50;3.00;;;25.10;66.00;;;;;;4060506;29;20040;-64
2021/10/14 12:05:22;;;;;;;6.70;2.92;;;25.00;65.90;;;;;;4060646;29;20237;-65
2021/10/14 12:07:28;;;;;;;8.35;2.90;;;25.10;65.90;;;;;;4060567;29;20123;-64
2021/10/14 12:09:31;;;;;;;5.65;2.90;;;25.00;66.00;;;;;;4060165;29;20052;-65
2021/10/14 12:11:33;;;;;;;6.38;2.83;;;25.10;66.00;;;;;;4061981;29;20035;-65
2021/10/14 12:13:37;;;;;;;9.15;3.60;;;25.10;66.00;;;;;;4061563;29;20083;-65
2021/10/14 12:15:39;;;;;;;7.53;3.22;;;25.10;66.00;;;;;;4061129;29;20040;-64
2021/10/14 12:17:44;;;;;;;9.60;3.15;;;25.10;66.00;;;;;;4061335;29;20119;-65
2021/10/14 12:19:49;;;;;;;6.63;3.25;;;25.10;66.00;;;;;;4061942;29;20065;-64
2021/10/14 12:21:51;;;;;;;6.43;2.75;;;25.10;65.90;;;;;;4044557;29;20075;-64
2021/10/14 12:24:08;;;;;;;6.88;2.70;;;25.10;65.90;;;;;;4059677;29;20149;-72
2021/10/14 12:26:15;;;;;;;7.70;3.00;;;25.10;65.90;;;;;;4059338;29;20085;-70
2021/10/14 12:28:24;;;;;;;6.00;3.00;;;25.10;65.90;;;;;;4066481;29;20122;-72
2021/10/14 12:30:29;;;;;;;8.13;2.90;;;25.10;65.90;;;;;;4049102;29;20325;-72
2021/10/14 12:32:32;;;;;;;5.55;2.88;;;25.10;65.90;;;;;;4065371;29;20386;-70
2021/10/14 12:34:54;;;;;;;8.50;3.13;;;25.10;65.80;;;;;;4066054;29;20036;-71
2021/10/14 12:36:56;;;;;;;6.72;2.95;;;25.10;65.80;;;;;;4065699;29;20394;-71
2021/10/14 12:38:59;;;;;;;9.68;3.75;;;25.10;65.80;;;;;;4063759;29;20036;-71
2021/10/14 12:41:08;;;;;;;6.10;2.83;;;25.10;65.80;;;;;;4076761;29;20099;-64
2021/10/14 12:43:27;;;;;;;9.27;3.47;;;25.10;65.80;;;;;;4061493;29;20465;-64
2021/10/14 12:46:20;;;;;;;6.63;3.53;;;25.10;65.80;;;;;;4060203;29;20498;-64
2021/10/14 12:47:54;;;;;;;9.27;2.70;;;25.10;65.80;;;;;;4053186;29;20052;-64
2021/10/14 12:50:18;;;;;;;5.65;2.80;;;25.10;65.70;;;;;;4059816;29;20355;-65
2021/10/14 12:52:21;;;;;;;8.02;3.13;;;25.00;65.70;;;;;;4060172;29;20065;-65
2021/10/14 12:54:26;;;;;;;6.45;3.17;;;25.10;65.70;;;;;;4060945;29;20052;-65
2021/10/14 12:56:35;;;;;;;8.43;3.20;;;25.10;65.70;;;;;;4061924;29;20450;-65
2021/10/14 12:58:38;;;;;;;7.32;2.58;;;25.10;65.70;;;;;;4059881;29;20036;-66
2021/10/14 13:00:41;;;;;;;6.00;3.00;;;25.00;65.60;;;;;;4044079;29;20040;-65
2021/10/14 13:02:52;;;;;;;11.60;3.15;;;25.00;65.50;;;;;;4059683;29;20730;-65
2021/10/14 13:04:55;;;;;;;7.35;3.25;;;25.00;65.60;;;;;;4060453;29;20846;-65
2021/10/14 13:06:57;;;;;;;6.25;2.80;;;25.00;65.60;;;;;;4058229;29;20127;-66
2021/10/14 13:09:02;;;;;;;4.80;2.70;;;25.00;65.60;;;;;;4057054;29;20550;-64
2021/10/14 13:11:07;;;;;;;7.57;3.35;;;25.00;65.60;;;;;;4043444;29;20793;-65
2021/10/14 13:13:11;;;;;;;5.85;3.00;;;25.00;65.50;;;;;;4060919;29;20039;-65
2021/10/14 13:15:13;;;;;;;8.05;3.47;;;25.00;65.50;;;;;;4060930;29;20067;-64
2021/10/14 13:17:16;;;;;;;6.65;3.13;;;25.00;65.40;;;;;;4057721;29;20587;-64
2021/10/14 13:19:19;;;;;;;6.20;2.90;;;25.00;65.40;;;;;;4059424;29;20094;-66